createdAt,value
2022-07-30T00:00:03.622Z,18.67
2022-07-30T00:01:03.480Z,18.67
2022-07-30T00:02:04.197Z,18.69
2022-07-30T00:03:04.215Z,18.76
2022-07-30T00:04:04.033Z,18.80
2022-07-30T00:05:04.401Z,18.82
2022-07-30T00:06:04.085Z,18.84
2022-07-30T00:07:03.869Z,18.80
2022-07-30T00:08:03.573Z,18.75
2022-07-30T00:09:03.942Z,18.74
2022-07-30T00:10:03.427Z,18.69
2022-07-30T00:11:03.817Z,18.67
2022-07-30T00:12:04.198Z,18.65
2022-07-30T00:13:04.432Z,18.60
2022-07-30T00:14:04.086Z,18.54
2022-07-30T00:15:04.515Z,18.52
2022-07-30T00:16:04.631Z,18.47
2022-07-30T00:17:04.120Z,18.41
2022-07-30T00:18:03.484Z,18.37
2022-07-30T00:19:03.551Z,18.33
2022-07-30T00:20:03.260Z,18.33
2022-07-30T00:21:03.662Z,18.33
2022-07-30T00:22:04.084Z,18.33
2022-07-30T00:23:04.052Z,18.29
2022-07-30T00:24:04.381Z,18.22
2022-07-30T00:25:03.997Z,18.12
2022-07-30T00:26:04.104Z,18.09
2022-07-30T00:27:03.790Z,18.08
2022-07-30T00:28:03.801Z,18.09
2022-07-30T00:29:03.618Z,18.13
2022-07-30T00:30:03.316Z,18.16
2022-07-30T00:31:03.782Z,18.19
2022-07-30T00:32:04.060Z,18.19
2022-07-30T00:33:04.345Z,18.18
2022-07-30T00:34:04.243Z,18.15
2022-07-30T00:35:04.212Z,18.13
2022-07-30T00:36:03.852Z,18.11
2022-07-30T00:37:04.203Z,18.10
2022-07-30T00:38:04.099Z,18.06
2022-07-30T00:39:04.495Z,18.06
2022-07-30T00:40:04.214Z,18.03
2022-07-30T00:41:04.449Z,17.96
2022-07-30T00:42:03.900Z,17.91
2022-07-30T00:43:03.647Z,17.91
2022-07-30T00:44:03.981Z,17.93
2022-07-30T00:45:04.058Z,17.92
2022-07-30T00:46:03.897Z,17.91
2022-07-30T00:47:04.770Z,17.91
2022-07-30T00:48:04.543Z,17.85
2022-07-30T00:49:04.639Z,17.83
2022-07-30T00:50:04.406Z,17.78
2022-07-30T00:51:04.067Z,17.76
2022-07-30T00:52:04.224Z,17.75
2022-07-30T00:53:04.603Z,17.76
2022-07-30T00:54:04.748Z,17.85
2022-07-30T00:55:04.493Z,17.86
2022-07-30T00:56:04.205Z,17.82
2022-07-30T00:57:04.645Z,17.79
2022-07-30T00:58:04.372Z,17.78
2022-07-30T00:59:04.803Z,17.74
2022-07-30T01:00:04.523Z,17.70
2022-07-30T01:01:04.317Z,17.65
2022-07-30T01:02:03.639Z,17.59
2022-07-30T01:03:03.373Z,17.59
2022-07-30T01:04:03.997Z,17.59
2022-07-30T01:05:03.690Z,17.59
2022-07-30T01:06:03.357Z,17.58
2022-07-30T01:07:03.654Z,17.54
2022-07-30T01:08:03.407Z,17.49
2022-07-30T01:09:03.423Z,17.45
2022-07-30T01:10:03.446Z,17.45
2022-07-30T01:11:03.084Z,17.45
2022-07-30T01:12:03.855Z,17.44
2022-07-30T01:13:04.325Z,17.46
2022-07-30T01:14:04.041Z,17.44
2022-07-30T01:15:03.919Z,17.43
2022-07-30T01:16:04.314Z,17.42
2022-07-30T01:17:03.617Z,17.40
2022-07-30T01:18:03.255Z,17.38
2022-07-30T01:19:03.603Z,17.37
2022-07-30T01:20:03.304Z,17.35
2022-07-30T01:21:03.636Z,17.35
2022-07-30T01:22:04.126Z,17.35
2022-07-30T01:23:03.570Z,17.35
2022-07-30T01:24:03.672Z,17.40
2022-07-30T01:25:03.561Z,17.42
2022-07-30T01:26:03.904Z,17.44
2022-07-30T01:27:04.324Z,17.44
2022-07-30T01:28:03.997Z,17.36
2022-07-30T01:29:04.332Z,17.29
2022-07-30T01:30:04.027Z,17.24
2022-07-30T01:31:04.387Z,17.20
2022-07-30T01:32:03.859Z,17.17
2022-07-30T01:33:03.606Z,17.13
2022-07-30T01:34:03.468Z,17.06
2022-07-30T01:35:03.672Z,17.00
2022-07-30T01:36:03.540Z,16.97
2022-07-30T01:37:04.127Z,16.97
2022-07-30T01:38:03.744Z,16.98
2022-07-30T01:39:03.451Z,17.01
2022-07-30T01:40:03.821Z,16.97
2022-07-30T01:41:03.482Z,16.95
2022-07-30T01:42:04.226Z,16.96
2022-07-30T01:43:04.085Z,17.00
2022-07-30T01:44:04.609Z,17.03
2022-07-30T01:45:04.137Z,17.02
2022-07-30T01:46:04.513Z,16.98
2022-07-30T01:47:03.668Z,16.98
2022-07-30T01:48:03.401Z,16.93
2022-07-30T01:49:03.968Z,16.92
2022-07-30T01:50:03.418Z,16.89
2022-07-30T01:51:03.777Z,16.86
2022-07-30T01:52:04.153Z,16.83
2022-07-30T01:53:03.895Z,16.76
2022-07-30T01:54:03.556Z,16.71
2022-07-30T01:55:03.802Z,16.68
2022-07-30T01:56:03.543Z,16.63
2022-07-30T01:57:04.124Z,16.63
2022-07-30T01:58:04.621Z,16.64
2022-07-30T01:59:04.288Z,16.63
2022-07-30T02:00:04.649Z,16.60
2022-07-30T02:01:04.438Z,16.58
2022-07-30T02:02:02.096Z,16.52
2022-07-30T02:03:02.356Z,16.48
2022-07-30T02:04:02.354Z,16.48
2022-07-30T02:05:02.095Z,16.41
2022-07-30T02:06:02.300Z,16.38
2022-07-30T02:07:03.327Z,16.36
2022-07-30T02:08:03.248Z,16.34
2022-07-30T02:09:02.864Z,16.35
2022-07-30T02:10:03.270Z,16.36
2022-07-30T02:11:02.913Z,16.48
2022-07-30T02:12:02.515Z,16.56
2022-07-30T02:13:02.859Z,16.57
2022-07-30T02:14:02.420Z,16.54
2022-07-30T02:15:02.589Z,16.53
2022-07-30T02:16:02.885Z,16.48
2022-07-30T02:17:03.043Z,16.50
2022-07-30T02:18:02.438Z,16.50
2022-07-30T02:19:04.391Z,16.51
2022-07-30T02:20:09.259Z,16.47
2022-07-30T02:21:07.264Z,16.48
2022-07-30T02:22:02.787Z,16.45
2022-07-30T02:23:02.698Z,16.44
2022-07-30T02:24:03.112Z,16.39
2022-07-30T02:25:02.728Z,16.31
2022-07-30T02:26:03.182Z,16.30
2022-07-30T02:27:03.305Z,16.29
2022-07-30T02:28:03.224Z,16.26
2022-07-30T02:29:02.902Z,16.22
2022-07-30T02:30:03.278Z,16.18
2022-07-30T02:31:03.268Z,16.16
2022-07-30T02:32:03.000Z,16.16
2022-07-30T02:33:03.302Z,16.14
2022-07-30T02:34:03.232Z,16.18
2022-07-30T02:35:02.998Z,16.16
2022-07-30T02:36:03.398Z,16.14
2022-07-30T02:37:03.401Z,16.12
2022-07-30T02:38:03.227Z,16.15
2022-07-30T02:39:03.199Z,16.13
2022-07-30T02:40:03.305Z,16.10
2022-07-30T02:41:03.224Z,16.09
2022-07-30T02:42:02.669Z,16.08
2022-07-30T02:43:03.005Z,16.06
2022-07-30T02:44:02.973Z,16.06
2022-07-30T02:45:03.005Z,16.05
2022-07-30T02:46:02.696Z,16.01
2022-07-30T02:47:04.849Z,15.95
2022-07-30T02:48:03.150Z,15.91
2022-07-30T02:49:02.890Z,15.90
2022-07-30T02:50:03.180Z,15.98
2022-07-30T02:51:03.295Z,16.04
2022-07-30T02:52:03.337Z,15.99
2022-07-30T02:53:03.765Z,15.96
2022-07-30T02:54:03.337Z,15.92
2022-07-30T02:55:03.603Z,15.88
2022-07-30T02:56:03.251Z,15.80
2022-07-30T02:57:03.109Z,15.81
2022-07-30T02:58:02.769Z,15.78
2022-07-30T02:59:02.509Z,15.77
2022-07-30T03:00:02.865Z,15.75
2022-07-30T03:01:03.301Z,15.74
2022-07-30T03:02:03.122Z,15.77
2022-07-30T03:03:03.332Z,15.82
2022-07-30T03:04:03.076Z,15.79
2022-07-30T03:05:03.420Z,15.74
2022-07-30T03:06:03.066Z,15.69
2022-07-30T03:07:07.893Z,15.62
2022-07-30T03:08:03.416Z,15.56
2022-07-30T03:09:03.891Z,15.54
2022-07-30T03:10:03.786Z,15.53
2022-07-30T03:11:03.469Z,15.52
2022-07-30T03:12:02.648Z,15.54
2022-07-30T03:13:03.004Z,15.51
2022-07-30T03:14:02.645Z,15.50
2022-07-30T03:15:03.006Z,15.49
2022-07-30T03:16:02.764Z,15.49
2022-07-30T03:17:03.232Z,15.49
2022-07-30T03:18:03.214Z,15.50
2022-07-30T03:19:05.139Z,15.57
2022-07-30T03:20:03.129Z,15.61
2022-07-30T03:21:03.483Z,15.62
2022-07-30T03:22:02.711Z,15.61
2022-07-30T03:23:02.397Z,15.61
2022-07-30T03:24:02.995Z,15.58
2022-07-30T03:25:02.494Z,15.56
2022-07-30T03:26:02.605Z,15.55
2022-07-30T03:27:04.228Z,15.52
2022-07-30T03:28:03.341Z,15.46
2022-07-30T03:29:03.614Z,15.45
2022-07-30T03:30:03.275Z,15.40
2022-07-30T03:31:03.681Z,15.33
2022-07-30T03:32:03.153Z,15.31
2022-07-30T03:33:03.161Z,15.31
2022-07-30T03:34:03.244Z,15.27
2022-07-30T03:35:06.384Z,15.23
2022-07-30T03:36:03.406Z,15.21
2022-07-30T03:37:03.357Z,15.21
2022-07-30T03:38:03.041Z,15.22
2022-07-30T03:39:02.794Z,15.29
2022-07-30T03:40:03.047Z,15.29
2022-07-30T03:41:02.780Z,15.31
2022-07-30T03:42:03.185Z,15.34
2022-07-30T03:43:02.947Z,15.30
2022-07-30T03:44:03.369Z,15.28
2022-07-30T03:45:03.183Z,15.28
2022-07-30T03:46:03.430Z,15.26
2022-07-30T03:47:03.644Z,15.25
2022-07-30T03:48:03.347Z,15.26
2022-07-30T03:49:03.486Z,15.24
2022-07-30T03:50:02.748Z,15.21
2022-07-30T03:51:03.231Z,15.18
2022-07-30T03:52:03.717Z,15.17
2022-07-30T03:53:03.210Z,15.15
2022-07-30T03:54:03.644Z,15.15
2022-07-30T03:55:03.352Z,15.16
2022-07-30T03:56:03.766Z,15.15
2022-07-30T03:57:03.981Z,15.13
2022-07-30T03:58:03.855Z,15.13
2022-07-30T03:59:03.641Z,15.15
2022-07-30T04:00:03.587Z,15.16
2022-07-30T04:01:03.473Z,15.16
2022-07-30T04:02:07.214Z,15.16
2022-07-30T04:03:03.881Z,15.12
2022-07-30T04:04:03.774Z,15.09
2022-07-30T04:05:03.752Z,15.10
2022-07-30T04:06:03.932Z,15.10
2022-07-30T04:07:03.812Z,15.09
2022-07-30T04:08:03.470Z,15.07
2022-07-30T04:09:03.264Z,15.06
2022-07-30T04:10:02.935Z,15.03
2022-07-30T04:11:03.372Z,15.07
2022-07-30T04:12:03.701Z,15.11
2022-07-30T04:13:07.778Z,15.14
2022-07-30T04:14:03.299Z,15.11
2022-07-30T04:15:03.706Z,15.03
2022-07-30T04:16:31.752Z,14.98
2022-07-30T04:17:04.389Z,14.96
2022-07-30T04:18:03.671Z,14.95
2022-07-30T04:19:03.938Z,14.95
2022-07-30T04:20:03.765Z,14.94
2022-07-30T04:21:03.613Z,14.93
2022-07-30T04:22:03.830Z,14.94
2022-07-30T04:23:04.029Z,14.95
2022-07-30T04:24:05.561Z,14.95
2022-07-30T04:25:03.654Z,14.95
2022-07-30T04:26:03.792Z,14.99
2022-07-30T04:27:04.497Z,15.01
2022-07-30T04:28:04.320Z,15.04
2022-07-30T04:29:04.128Z,15.02
2022-07-30T04:30:03.824Z,15.00
2022-07-30T04:31:04.379Z,14.96
2022-07-30T04:32:04.031Z,14.94
2022-07-30T04:33:03.973Z,14.93
2022-07-30T04:34:04.587Z,14.95
2022-07-30T04:35:03.669Z,14.98
2022-07-30T04:36:03.386Z,14.99
2022-07-30T04:37:04.907Z,15.01
2022-07-30T04:38:04.275Z,15.03
2022-07-30T04:39:04.021Z,15.01
2022-07-30T04:40:04.424Z,15.01
2022-07-30T04:41:04.242Z,15.02
2022-07-30T04:42:03.291Z,15.04
2022-07-30T04:43:03.098Z,15.05
2022-07-30T04:44:03.386Z,15.07
2022-07-30T04:45:03.151Z,15.08
2022-07-30T04:46:03.627Z,15.11
2022-07-30T04:47:04.153Z,15.14
2022-07-30T04:48:03.631Z,15.15
2022-07-30T04:49:03.777Z,15.17
2022-07-30T04:50:03.902Z,15.18
2022-07-30T04:51:03.528Z,15.19
2022-07-30T04:52:04.335Z,15.22
2022-07-30T04:53:04.145Z,15.23
2022-07-30T04:54:03.838Z,15.24
2022-07-30T04:55:04.270Z,15.26
2022-07-30T04:56:03.994Z,15.28
2022-07-30T04:57:04.192Z,15.30
2022-07-30T04:58:03.685Z,15.32
2022-07-30T04:59:03.329Z,15.34
2022-07-30T05:00:03.529Z,15.37
2022-07-30T05:01:03.865Z,15.41
2022-07-30T05:02:02.748Z,15.43
2022-07-30T05:03:03.013Z,15.46
2022-07-30T05:04:02.746Z,15.49
2022-07-30T05:05:03.195Z,15.50
2022-07-30T05:06:02.941Z,15.49
2022-07-30T05:07:03.762Z,15.48
2022-07-30T05:08:03.422Z,15.50
2022-07-30T05:09:03.840Z,15.53
2022-07-30T05:10:03.877Z,15.57
2022-07-30T05:11:03.854Z,15.62
2022-07-30T05:12:03.001Z,15.65
2022-07-30T05:13:03.061Z,15.67
2022-07-30T05:14:02.606Z,15.69
2022-07-30T05:15:02.934Z,15.71
2022-07-30T05:16:03.239Z,15.71
2022-07-30T05:17:04.063Z,15.75
2022-07-30T05:18:03.060Z,15.75
2022-07-30T05:19:07.801Z,15.78
2022-07-30T05:20:03.000Z,15.81
2022-07-30T05:21:03.321Z,15.84
2022-07-30T05:22:06.608Z,15.91
2022-07-30T05:23:03.198Z,16.01
2022-07-30T05:24:03.186Z,16.05
2022-07-30T05:25:03.101Z,16.10
2022-07-30T05:26:03.535Z,16.12
2022-07-30T05:27:03.788Z,16.13
2022-07-30T05:28:03.314Z,16.18
2022-07-30T05:29:04.010Z,16.23
2022-07-30T05:30:03.467Z,16.24
2022-07-30T05:31:03.644Z,16.21
2022-07-30T05:32:03.511Z,16.21
2022-07-30T05:33:03.700Z,16.23
2022-07-30T05:34:03.814Z,16.25
2022-07-30T05:35:03.054Z,16.26
2022-07-30T05:36:03.446Z,16.27
2022-07-30T05:37:04.015Z,16.29
2022-07-30T05:38:04.160Z,16.33
2022-07-30T05:39:03.265Z,16.36
2022-07-30T05:40:03.864Z,16.37
2022-07-30T05:41:03.719Z,16.41
2022-07-30T05:42:03.046Z,16.45
2022-07-30T05:43:03.290Z,16.51
2022-07-30T05:44:03.050Z,16.58
2022-07-30T05:45:03.131Z,16.66
2022-07-30T05:46:03.197Z,16.72
2022-07-30T05:47:03.859Z,16.81
2022-07-30T05:48:03.446Z,16.89
2022-07-30T05:49:03.984Z,16.95
2022-07-30T05:50:05.296Z,16.98
2022-07-30T05:51:03.657Z,17.07
2022-07-30T05:52:03.178Z,17.17
2022-07-30T05:53:03.209Z,17.28
2022-07-30T05:54:03.194Z,17.39
2022-07-30T05:55:02.964Z,17.49
2022-07-30T05:56:03.498Z,17.60
2022-07-30T05:57:03.834Z,17.70
2022-07-30T05:58:03.462Z,17.82
2022-07-30T05:59:03.321Z,17.92
2022-07-30T06:00:03.075Z,18.00
2022-07-30T06:01:03.615Z,18.06
2022-07-30T06:02:03.744Z,18.13
2022-07-30T06:03:03.682Z,18.18
2022-07-30T06:04:03.527Z,18.27
2022-07-30T06:05:03.483Z,18.38
2022-07-30T06:06:03.357Z,18.43
2022-07-30T06:07:03.425Z,18.54
2022-07-30T06:08:03.004Z,18.64
2022-07-30T06:09:02.791Z,18.73
2022-07-30T06:10:03.163Z,18.85
2022-07-30T06:11:02.727Z,18.97
2022-07-30T06:12:03.307Z,19.09
2022-07-30T06:13:02.971Z,19.19
2022-07-30T06:14:03.106Z,19.23
2022-07-30T06:15:02.958Z,19.24
2022-07-30T06:16:03.112Z,19.28
2022-07-30T06:17:04.041Z,19.34
2022-07-30T06:18:04.085Z,19.43
2022-07-30T06:19:03.614Z,19.54
2022-07-30T06:20:03.496Z,19.57
2022-07-30T06:21:03.445Z,19.67
2022-07-30T06:22:06.591Z,19.77
2022-07-30T06:23:03.731Z,19.87
2022-07-30T06:24:03.642Z,19.95
2022-07-30T06:25:03.526Z,20.04
2022-07-30T06:26:03.968Z,20.11
2022-07-30T06:27:03.651Z,20.19
2022-07-30T06:28:20.992Z,20.26
2022-07-30T06:29:03.188Z,20.31
2022-07-30T06:30:03.115Z,20.39
2022-07-30T06:31:03.165Z,20.43
2022-07-30T06:32:03.748Z,20.47
2022-07-30T06:33:03.722Z,20.51
2022-07-30T06:34:03.780Z,20.53
2022-07-30T06:35:05.090Z,20.63
2022-07-30T06:36:03.998Z,20.75
2022-07-30T06:37:04.351Z,20.78
2022-07-30T06:38:07.416Z,20.86
2022-07-30T06:39:03.840Z,20.91
2022-07-30T06:40:04.069Z,20.91
2022-07-30T06:41:04.643Z,20.94
2022-07-30T06:42:03.374Z,21.01
2022-07-30T06:43:03.232Z,21.04
2022-07-30T06:44:03.421Z,21.11
2022-07-30T06:45:03.230Z,21.23
2022-07-30T06:46:03.213Z,21.34
2022-07-30T06:47:07.739Z,21.42
2022-07-30T06:48:03.564Z,21.51
2022-07-30T06:49:03.971Z,21.52
2022-07-30T06:50:03.878Z,21.59
2022-07-30T06:51:03.885Z,21.67
2022-07-30T06:52:04.149Z,21.74
2022-07-30T06:53:03.960Z,21.84
2022-07-30T06:54:03.884Z,21.95
2022-07-30T06:55:03.886Z,21.88
2022-07-30T06:56:04.305Z,21.90
2022-07-30T06:57:03.376Z,21.93
2022-07-30T06:58:03.169Z,22.04
2022-07-30T06:59:02.951Z,22.15
2022-07-30T07:00:03.367Z,22.08
2022-07-30T07:01:03.406Z,22.15
2022-07-30T07:02:02.933Z,22.23
2022-07-30T07:03:03.142Z,22.31
2022-07-30T07:04:03.464Z,22.37
2022-07-30T07:05:02.995Z,22.33
2022-07-30T07:06:02.971Z,22.38
2022-07-30T07:07:12.618Z,22.45
2022-07-30T07:08:03.456Z,22.57
2022-07-30T07:09:03.461Z,22.68
2022-07-30T07:10:03.444Z,22.77
2022-07-30T07:11:03.310Z,22.90
2022-07-30T07:12:03.992Z,22.99
2022-07-30T07:13:03.960Z,23.06
2022-07-30T07:14:04.812Z,22.96
2022-07-30T07:15:04.059Z,22.89
2022-07-30T07:16:04.036Z,22.95
2022-07-30T07:17:04.183Z,23.05
2022-07-30T07:18:03.995Z,23.17
2022-07-30T07:19:04.110Z,23.22
2022-07-30T07:20:04.013Z,23.25
2022-07-30T07:21:04.105Z,23.30
2022-07-30T07:22:04.101Z,23.31
2022-07-30T07:23:09.207Z,23.36
2022-07-30T07:24:04.083Z,23.49
2022-07-30T07:25:04.230Z,23.59
2022-07-30T07:26:04.009Z,23.63
2022-07-30T07:27:04.365Z,23.61
2022-07-30T07:28:11.844Z,23.66
2022-07-30T07:29:05.400Z,23.69
2022-07-30T07:30:05.987Z,23.76
2022-07-30T07:31:04.534Z,23.84
2022-07-30T07:32:07.810Z,23.76
2022-07-30T07:33:03.571Z,23.67
2022-07-30T07:34:04.181Z,23.62
2022-07-30T07:35:04.041Z,23.66
2022-07-30T07:36:03.654Z,23.77
2022-07-30T07:37:04.035Z,23.91
2022-07-30T07:38:03.294Z,24.00
2022-07-30T07:39:03.777Z,24.04
2022-07-30T07:40:03.285Z,24.14
2022-07-30T07:41:03.633Z,24.24
2022-07-30T07:42:04.495Z,24.30
2022-07-30T07:43:04.151Z,24.38
2022-07-30T07:44:04.304Z,24.45
2022-07-30T07:45:04.355Z,24.53
2022-07-30T07:46:04.398Z,24.58
2022-07-30T07:47:04.026Z,24.65
2022-07-30T07:48:03.618Z,24.65
2022-07-30T07:49:03.960Z,24.59
2022-07-30T07:50:03.823Z,24.61
2022-07-30T07:51:03.507Z,24.63
2022-07-30T07:52:04.135Z,24.71
2022-07-30T07:53:03.620Z,24.75
2022-07-30T07:54:20.402Z,24.79
2022-07-30T07:55:03.828Z,24.83
2022-07-30T07:56:03.671Z,24.91
2022-07-30T07:57:04.500Z,24.98
2022-07-30T07:58:04.283Z,25.02
2022-07-30T07:59:04.536Z,24.99
2022-07-30T08:00:04.042Z,24.91
2022-07-30T08:01:04.073Z,24.91
2022-07-30T08:02:03.945Z,24.85
2022-07-30T08:03:02.618Z,24.89
2022-07-30T08:04:02.581Z,24.98
2022-07-30T08:05:02.801Z,25.04
2022-07-30T08:06:06.354Z,25.11
2022-07-30T08:07:04.518Z,25.05
2022-07-30T08:08:02.822Z,24.95
2022-07-30T08:09:03.644Z,24.88
2022-07-30T08:10:03.456Z,24.83
2022-07-30T08:11:03.424Z,24.73
2022-07-30T08:12:02.356Z,24.67
2022-07-30T08:13:02.421Z,24.74
2022-07-30T08:14:02.021Z,24.91
2022-07-30T08:15:02.143Z,25.00
2022-07-30T08:16:02.198Z,25.10
2022-07-30T08:17:03.028Z,25.21
2022-07-30T08:18:02.357Z,25.30
2022-07-30T08:19:03.097Z,25.34
2022-07-30T08:20:02.623Z,25.30
2022-07-30T08:21:03.272Z,25.26
2022-07-30T08:22:03.109Z,25.27
2022-07-30T08:23:03.757Z,25.37
2022-07-30T08:24:03.830Z,25.47
2022-07-30T08:25:03.696Z,25.60
2022-07-30T08:26:03.808Z,25.66
2022-07-30T08:27:03.929Z,25.60
2022-07-30T08:28:03.520Z,25.57
2022-07-30T08:29:02.997Z,25.59
2022-07-30T08:30:02.857Z,25.67
2022-07-30T08:31:02.967Z,25.74
2022-07-30T08:32:02.635Z,25.76
2022-07-30T08:33:02.735Z,25.79
2022-07-30T08:34:02.955Z,25.73
2022-07-30T08:35:03.067Z,25.60
2022-07-30T08:36:09.082Z,25.55
2022-07-30T08:37:02.963Z,25.42
2022-07-30T08:38:02.349Z,25.42
2022-07-30T08:39:02.559Z,25.55
2022-07-30T08:40:02.679Z,25.69
2022-07-30T08:41:02.832Z,25.73
2022-07-30T08:42:03.434Z,25.82
2022-07-30T08:43:02.715Z,25.88
2022-07-30T08:44:03.222Z,25.98
2022-07-30T08:45:03.374Z,25.99
2022-07-30T08:46:03.392Z,25.99
2022-07-30T08:47:03.673Z,26.03
2022-07-30T08:48:02.183Z,25.99
2022-07-30T08:49:07.647Z,26.04
2022-07-30T08:50:02.647Z,26.04
2022-07-30T08:51:02.172Z,26.01
2022-07-30T08:52:02.843Z,25.95
2022-07-30T08:53:02.801Z,25.92
2022-07-30T08:54:02.745Z,25.96
2022-07-30T08:55:02.525Z,25.95
2022-07-30T08:56:02.481Z,25.99
2022-07-30T08:57:03.144Z,25.99
2022-07-30T08:58:03.653Z,26.09
2022-07-30T08:59:03.215Z,26.19
2022-07-30T09:00:03.362Z,26.25
2022-07-30T09:01:04.066Z,26.29
2022-07-30T09:02:05.641Z,26.27
2022-07-30T09:03:03.086Z,26.31
2022-07-30T09:04:03.468Z,26.36
2022-07-30T09:05:02.914Z,26.34
2022-07-30T09:06:03.311Z,26.38
2022-07-30T09:07:04.411Z,26.41
2022-07-30T09:08:08.496Z,26.36
2022-07-30T09:09:03.396Z,26.39
2022-07-30T09:10:03.936Z,26.36
2022-07-30T09:11:03.919Z,26.29
2022-07-30T09:12:03.246Z,26.32
2022-07-30T09:13:03.002Z,26.37
2022-07-30T09:14:05.858Z,26.40
2022-07-30T09:15:03.234Z,26.28
2022-07-30T09:16:03.183Z,26.26
2022-07-30T09:17:04.075Z,26.33
2022-07-30T09:18:03.524Z,26.44
2022-07-30T09:19:03.862Z,26.49
2022-07-30T09:20:03.875Z,26.47
2022-07-30T09:21:03.808Z,26.52
2022-07-30T09:22:03.300Z,26.51
2022-07-30T09:23:03.027Z,26.52
2022-07-30T09:24:03.426Z,26.57
2022-07-30T09:25:03.101Z,26.64
2022-07-30T09:26:03.232Z,26.73
2022-07-30T09:27:03.404Z,26.80
2022-07-30T09:28:03.165Z,26.80
2022-07-30T09:29:02.442Z,26.86
2022-07-30T09:30:03.629Z,26.92
2022-07-30T09:31:02.623Z,26.97
2022-07-30T09:32:04.315Z,26.97
2022-07-30T09:33:04.079Z,26.97
2022-07-30T09:34:03.977Z,27.03
2022-07-30T09:35:06.043Z,27.01
2022-07-30T09:36:03.092Z,27.08
2022-07-30T09:37:03.010Z,27.20
2022-07-30T09:38:06.335Z,27.28
2022-07-30T09:39:02.660Z,27.31
2022-07-30T09:40:03.294Z,27.29
2022-07-30T09:41:12.228Z,27.37
2022-07-30T09:42:03.567Z,27.47
2022-07-30T09:43:03.022Z,27.54
2022-07-30T09:44:03.560Z,27.65
2022-07-30T09:45:02.684Z,27.74
2022-07-30T09:46:02.617Z,27.74
2022-07-30T09:47:03.664Z,27.63
2022-07-30T09:48:03.640Z,27.40
2022-07-30T09:49:03.420Z,27.39
2022-07-30T09:50:07.484Z,27.43
2022-07-30T09:51:03.571Z,27.30
2022-07-30T09:52:03.117Z,27.24
2022-07-30T09:53:03.506Z,27.28
2022-07-30T09:54:03.031Z,27.35
2022-07-30T09:55:03.611Z,27.40
2022-07-30T09:56:03.292Z,27.27
2022-07-30T09:57:03.167Z,27.23
2022-07-30T09:58:03.437Z,27.17
2022-07-30T09:59:03.302Z,27.09
2022-07-30T10:00:03.757Z,27.06
2022-07-30T10:01:03.605Z,27.08
2022-07-30T10:02:04.093Z,27.05
2022-07-30T10:03:12.673Z,26.99
2022-07-30T10:04:02.235Z,26.94
2022-07-30T10:05:02.042Z,26.86
2022-07-30T10:06:03.015Z,26.82
2022-07-30T10:07:03.430Z,26.91
2022-07-30T10:08:05.444Z,26.97
2022-07-30T10:09:13.896Z,27.06
2022-07-30T10:10:02.672Z,27.07
2022-07-30T10:11:04.953Z,27.08
2022-07-30T10:12:03.530Z,27.12
2022-07-30T10:13:04.233Z,27.15
2022-07-30T10:14:03.092Z,27.18
2022-07-30T10:15:06.279Z,27.25
2022-07-30T10:16:02.881Z,27.28
2022-07-30T10:17:03.101Z,27.37
2022-07-30T10:18:02.787Z,27.40
2022-07-30T10:19:02.534Z,27.42
2022-07-30T10:20:03.030Z,27.43
2022-07-30T10:21:05.557Z,27.45
2022-07-30T10:22:02.057Z,27.42
2022-07-30T10:23:08.070Z,27.32
2022-07-30T10:24:02.555Z,27.34
2022-07-30T10:25:02.289Z,27.32
2022-07-30T10:26:03.572Z,27.41
2022-07-30T10:27:06.042Z,27.41
2022-07-30T10:28:02.965Z,27.30
2022-07-30T10:29:02.611Z,27.34
2022-07-30T10:30:04.026Z,27.38
2022-07-30T10:31:46.440Z,27.41
2022-07-30T10:32:02.571Z,27.46
2022-07-30T10:33:02.971Z,27.46
2022-07-30T10:34:03.197Z,27.50
2022-07-30T10:35:03.215Z,27.53
2022-07-30T10:36:03.032Z,27.54
2022-07-30T10:37:04.763Z,27.54
2022-07-30T10:38:03.208Z,27.48
2022-07-30T10:39:03.177Z,27.46
2022-07-30T10:40:03.493Z,27.54
2022-07-30T10:41:03.400Z,27.65
2022-07-30T10:42:03.230Z,27.64
2022-07-30T10:43:02.521Z,27.61
2022-07-30T10:44:02.453Z,27.60
2022-07-30T10:45:02.814Z,27.67
2022-07-30T10:46:04.382Z,27.82
2022-07-30T10:47:06.984Z,27.92
2022-07-30T10:48:03.089Z,27.95
2022-07-30T10:49:02.974Z,27.85
2022-07-30T10:50:03.033Z,27.89
2022-07-30T10:51:03.112Z,27.95
2022-07-30T10:52:03.082Z,28.00
2022-07-30T10:53:03.053Z,28.15
2022-07-30T10:54:02.511Z,28.25
2022-07-30T10:55:02.559Z,28.20
2022-07-30T10:56:02.730Z,28.12
2022-07-30T10:57:02.392Z,28.13
2022-07-30T10:58:02.642Z,28.06
2022-07-30T10:59:02.931Z,28.08
2022-07-30T11:00:04.220Z,28.13
2022-07-30T11:01:02.812Z,28.22
2022-07-30T11:02:02.925Z,28.29
2022-07-30T11:03:02.896Z,28.28
2022-07-30T11:04:03.001Z,28.29
2022-07-30T11:05:02.711Z,28.27
2022-07-30T11:06:02.718Z,28.33
2022-07-30T11:07:03.204Z,28.28
2022-07-30T11:08:03.125Z,28.27
2022-07-30T11:09:02.671Z,28.28
2022-07-30T11:10:09.142Z,28.27
2022-07-30T11:11:19.453Z,28.23
2022-07-30T11:12:15.980Z,28.32
2022-07-30T11:13:02.976Z,28.39
2022-07-30T11:14:03.395Z,28.38
2022-07-30T11:15:07.187Z,28.32
2022-07-30T11:16:03.392Z,28.30
2022-07-30T11:17:02.931Z,28.36
2022-07-30T11:18:02.577Z,28.45
2022-07-30T11:19:27.336Z,28.59
2022-07-30T11:20:02.521Z,28.62
2022-07-30T11:21:02.757Z,28.67
2022-07-30T11:22:03.198Z,28.72
2022-07-30T11:23:02.839Z,28.78
2022-07-30T11:24:03.314Z,28.70
2022-07-30T11:25:06.633Z,28.78
2022-07-30T11:26:03.296Z,28.83
2022-07-30T11:27:03.433Z,28.87
2022-07-30T11:28:02.960Z,28.91
2022-07-30T11:29:03.224Z,28.99
2022-07-30T11:30:02.974Z,29.10
2022-07-30T11:31:10.298Z,29.02
2022-07-30T11:32:06.641Z,28.93
2022-07-30T11:33:02.430Z,28.96
2022-07-30T11:34:02.756Z,29.01
2022-07-30T11:35:02.987Z,29.13
2022-07-30T11:36:02.710Z,29.27
2022-07-30T11:37:02.875Z,29.37
2022-07-30T11:38:03.084Z,29.40
2022-07-30T11:39:05.107Z,29.43
2022-07-30T11:40:03.270Z,29.39
2022-07-30T11:41:03.568Z,29.30
2022-07-30T11:42:03.991Z,29.27
2022-07-30T11:43:03.397Z,29.36
2022-07-30T11:44:03.510Z,29.48
2022-07-30T11:45:04.173Z,29.52
2022-07-30T11:46:03.640Z,29.50
2022-07-30T11:47:03.337Z,29.40
2022-07-30T11:48:02.593Z,29.33
2022-07-30T11:49:02.973Z,29.26
2022-07-30T11:50:03.173Z,29.32
2022-07-30T11:51:04.046Z,29.48
2022-07-30T11:52:02.947Z,29.53
2022-07-30T11:53:03.486Z,29.58
2022-07-30T11:54:03.803Z,29.63
2022-07-30T11:55:03.339Z,29.61
2022-07-30T11:56:03.303Z,29.73
2022-07-30T11:57:04.713Z,29.71
2022-07-30T11:58:03.382Z,29.57
2022-07-30T11:59:03.513Z,29.59
2022-07-30T12:00:03.458Z,29.66
2022-07-30T12:01:09.061Z,29.75
2022-07-30T12:02:04.043Z,29.81
2022-07-30T12:03:04.286Z,29.80
2022-07-30T12:04:02.488Z,29.75
2022-07-30T12:05:02.747Z,29.75
2022-07-30T12:06:02.515Z,29.79
2022-07-30T12:07:03.261Z,29.83
2022-07-30T12:08:02.616Z,29.89
2022-07-30T12:09:02.786Z,30.00
2022-07-30T12:10:02.955Z,29.99
2022-07-30T12:11:02.976Z,29.91
2022-07-30T12:12:03.016Z,29.91
2022-07-30T12:13:03.210Z,30.02
2022-07-30T12:14:03.400Z,29.99
2022-07-30T12:15:03.736Z,29.88
2022-07-30T12:16:03.139Z,29.93
2022-07-30T12:17:03.832Z,30.05
2022-07-30T12:18:25.350Z,30.07
2022-07-30T12:19:02.853Z,30.07
2022-07-30T12:20:03.050Z,30.11
2022-07-30T12:21:02.807Z,30.12
2022-07-30T12:22:02.853Z,30.14
2022-07-30T12:23:03.032Z,30.20
2022-07-30T12:24:03.022Z,30.24
2022-07-30T12:25:03.377Z,30.37
2022-07-30T12:26:03.519Z,30.46
2022-07-30T12:27:04.061Z,30.37
2022-07-30T12:28:03.721Z,30.18
2022-07-30T12:29:03.410Z,30.15
2022-07-30T12:30:03.547Z,30.21
2022-07-30T12:31:03.657Z,30.19
2022-07-30T12:32:03.823Z,30.25
2022-07-30T12:33:03.107Z,30.26
2022-07-30T12:34:03.321Z,30.27
2022-07-30T12:35:03.323Z,30.16
2022-07-30T12:36:03.062Z,30.12
2022-07-30T12:37:03.701Z,30.11
2022-07-30T12:38:03.636Z,30.08
2022-07-30T12:39:03.674Z,30.12
2022-07-30T12:40:03.635Z,30.06
2022-07-30T12:41:03.086Z,30.09
2022-07-30T12:42:03.419Z,30.20
2022-07-30T12:43:03.476Z,30.21
2022-07-30T12:44:03.546Z,30.27
2022-07-30T12:45:03.648Z,30.35
2022-07-30T12:46:04.070Z,30.33
2022-07-30T12:47:04.376Z,30.35
2022-07-30T12:48:02.768Z,30.37
2022-07-30T12:49:06.388Z,30.49
2022-07-30T12:50:03.125Z,30.63
2022-07-30T12:51:03.108Z,30.61
2022-07-30T12:52:03.389Z,30.69